Airfield :
LOGIN :

Register | Disclaimer

   EN    FR    IT 

 










Legend :    VFR   Marginal VFR   IFR   Intensive IFR   Very Intensive IFR
Visi :
Ceiling :
>= 8 km
>= 3000ft
5 to 8 km
1000 to 3000 ft
1500m to 5 km
500 to 1000 ft
800 to 1500m
200 to 500 ft
< 800m
< 200 ft
Symbols :   Thunderstorms  Fog  Heavy snow  Heavy precipitations  Wind > 20 kt
SIGMETs :     Misc.  Thunderstorms  Icing  Turbulence  Mountain Waves  Volcanic Ashes







- Airport Elevation : 220 ft
- IATA code : CWL
- Download approach charts


EGFF - Cardiff Rhoose

CURRENT METAR :
  • 220420Z AUTO VRB02KT 9999 NCD 12/11 Q1016

EXPIRED METARs :
  • 220350Z AUTO 20005KT 9000 NCD 12/11 Q1016
  • 220320Z AUTO VRB01KT 9999 NCD 14/09 Q1016
  • 220250Z AUTO 22003KT 9999 NCD 15/08 Q1016
  • 220220Z AUTO VRB02KT 9999 NCD 15/09 Q1016
  • 220150Z AUTO 02004KT 9999 NCD 15/09 Q1016

TAF AMD TAF EGFF
Valid from the 22 at 04:00 until the 23 at 00:00 UTC


220359Z 2204/2224 19005KT 9000 FEW045
BECMG 2204/2207 9999
BECMG 2211/2214 25010KT
PROB30
TEMPO 2213/2220 4000 +TSRA
BECMG 2215/2218 03008KT
ATIS : +44 1446 729 319
No reported NOTAMs for that airfield.



MET'MAP, your aeronautical weather chart ! - Copyright ORBIFLY December 2007 - Disclaimer

ORBIFLY MET'MAP TEAM :

Programming & Development : Alexandra Zaïnal
Concept & Development : Baudouin d'Aumeries
Co-Development & Prog : Marc-Olivier Méhu
Technical & hardware support : Manuel Goepfert

Contact : metmap@orbifly.com




SOURCES & CREDITS :

   NOAA